createdAt,value
2016-11-25T00:00:43.075Z,0
2016-11-25T00:01:59.540Z,0
2016-11-25T00:03:14.216Z,0
2016-11-25T00:04:29.576Z,0
2016-11-25T00:05:45.743Z,0
2016-11-25T00:07:01.086Z,0
2016-11-25T00:08:16.195Z,0
2016-11-25T00:09:29.184Z,0
2016-11-25T00:10:42.663Z,0
2016-11-25T00:11:58.764Z,0
2016-11-25T00:13:15.371Z,0
2016-11-25T00:14:30.332Z,0
2016-11-25T00:15:47.035Z,0
2016-11-25T00:17:00.673Z,0
2016-11-25T00:18:16.599Z,0
2016-11-25T00:19:30.258Z,0
2016-11-25T00:20:42.182Z,0
2016-11-25T00:21:57.011Z,0
2016-11-25T00:23:12.958Z,0
2016-11-25T00:24:27.586Z,0
2016-11-25T00:25:44.263Z,0
2016-11-25T00:26:59.233Z,0
2016-11-25T00:28:13.510Z,0
2016-11-25T00:29:29.415Z,0
2016-11-25T00:30:42.958Z,0
2016-11-25T00:31:54.704Z,0
2016-11-25T00:33:09.381Z,0
2016-11-25T00:34:22.770Z,0
2016-11-25T00:35:38.020Z,0
2016-11-25T00:36:51.504Z,0
2016-11-25T00:38:04.971Z,0
2016-11-25T00:39:18.864Z,0
2016-11-25T00:40:33.534Z,0
2016-11-25T00:41:46.923Z,0
2016-11-25T00:43:02.198Z,0
2016-11-25T00:44:16.648Z,0
2016-11-25T00:45:30.476Z,0
2016-11-25T00:46:44.875Z,0
2016-11-25T00:47:59.598Z,0
2016-11-25T00:49:16.223Z,0
2016-11-25T00:50:31.052Z,0
2016-11-25T00:51:45.543Z,0
2016-11-25T00:53:01.981Z,0
2016-11-25T00:54:13.916Z,0
2016-11-25T00:55:30.317Z,0
2016-11-25T00:56:45.266Z,0
2016-11-25T00:58:02.095Z,0
2016-11-25T00:59:18.135Z,0
2016-11-25T01:00:33.015Z,0
2016-11-25T01:01:45.827Z,0
2016-11-25T01:03:01.548Z,0
2016-11-25T01:04:17.699Z,0
2016-11-25T01:05:31.305Z,0
2016-11-25T01:06:45.579Z,0
2016-11-25T01:07:59.301Z,0
2016-11-25T01:09:12.610Z,0
2016-11-25T01:10:27.339Z,0
2016-11-25T01:11:42.054Z,0
2016-11-25T01:12:55.703Z,0
2016-11-25T01:14:11.603Z,0
2016-11-25T01:15:24.981Z,0
2016-11-25T01:16:40.877Z,0
2016-11-25T01:17:54.763Z,0
2016-11-25T01:19:08.890Z,0
2016-11-25T01:20:22.280Z,0
2016-11-25T01:21:36.601Z,0
2016-11-25T01:22:51.380Z,0
2016-11-25T01:24:07.511Z,0
2016-11-25T01:25:21.139Z,0
2016-11-25T01:26:37.213Z,0
2016-11-25T01:27:51.837Z,0
2016-11-25T01:29:06.801Z,0
2016-11-25T01:30:22.938Z,0
2016-11-25T01:31:37.146Z,0
2016-11-25T01:32:50.394Z,0
2016-11-25T01:34:05.268Z,0
2016-11-25T01:35:21.827Z,0
2016-11-25T01:36:36.860Z,0
2016-11-25T01:37:50.252Z,0
2016-11-25T01:39:05.191Z,0
2016-11-25T01:40:19.997Z,0
2016-11-25T01:41:36.917Z,0
2016-11-25T01:42:52.188Z,0
2016-11-25T01:44:07.147Z,0
2016-11-25T01:45:23.606Z,0
2016-11-25T01:46:38.699Z,0
2016-11-25T01:47:52.652Z,0
2016-11-25T01:49:07.440Z,0
2016-11-25T01:50:22.193Z,0
2016-11-25T01:51:37.001Z,0
2016-11-25T01:52:53.714Z,0
2016-11-25T01:54:07.196Z,0
2016-11-25T01:55:23.611Z,0
2016-11-25T01:56:37.402Z,0
2016-11-25T01:57:53.685Z,0
2016-11-25T01:59:08.771Z,0
2016-11-25T02:00:25.078Z,0
2016-11-25T02:01:41.237Z,0
2016-11-25T02:02:57.988Z,0
2016-11-25T02:04:14.075Z,0
2016-11-25T02:05:28.566Z,0
2016-11-25T02:06:41.643Z,0
2016-11-25T02:07:54.633Z,0
2016-11-25T02:09:09.312Z,0
2016-11-25T02:10:25.623Z,0
2016-11-25T02:11:40.522Z,0
2016-11-25T02:12:54.867Z,0
2016-11-25T02:14:09.640Z,0
2016-11-25T02:15:25.845Z,0
2016-11-25T02:16:40.934Z,0
2016-11-25T02:17:57.473Z,0
2016-11-25T02:19:13.676Z,0
2016-11-25T02:20:28.248Z,0
2016-11-25T02:21:44.568Z,0
2016-11-25T02:22:58.591Z,0
2016-11-25T02:24:11.758Z,0
2016-11-25T02:25:26.051Z,0
2016-11-25T02:26:42.417Z,0
2016-11-25T02:27:57.097Z,0
2016-11-25T02:29:10.425Z,0
2016-11-25T02:30:25.056Z,0
2016-11-25T02:31:39.733Z,0
2016-11-25T02:32:56.194Z,0
2016-11-25T02:34:11.704Z,0
2016-11-25T02:35:24.432Z,0
2016-11-25T02:36:39.370Z,0
2016-11-25T02:37:55.699Z,0
2016-11-25T02:39:12.591Z,0
2016-11-25T02:40:25.905Z,0
2016-11-25T02:41:42.365Z,0
2016-11-25T02:42:58.316Z,0
2016-11-25T02:44:13.203Z,0
2016-11-25T02:45:26.854Z,0
2016-11-25T02:46:42.907Z,0
2016-11-25T02:47:57.589Z,0
2016-11-25T02:49:13.029Z,0
2016-11-25T02:50:27.786Z,0
2016-11-25T02:51:43.137Z,0
2016-11-25T02:52:57.648Z,0
2016-11-25T02:54:12.598Z,0
2016-11-25T02:55:26.825Z,0
2016-11-25T02:56:40.861Z,0
2016-11-25T02:57:55.903Z,0
2016-11-25T02:59:12.235Z,0
2016-11-25T03:00:26.653Z,0
2016-11-25T03:01:41.081Z,0
2016-11-25T03:02:54.474Z,0
2016-11-25T03:04:08.846Z,0
2016-11-25T03:05:23.789Z,0
2016-11-25T03:06:38.047Z,0
2016-11-25T03:07:53.095Z,0
2016-11-25T03:09:07.871Z,0
2016-11-25T03:10:21.431Z,0
2016-11-25T03:11:34.920Z,0
2016-11-25T03:12:50.827Z,0
2016-11-25T03:14:03.906Z,0
2016-11-25T03:15:16.939Z,0
2016-11-25T03:16:28.337Z,0
2016-11-25T03:17:43.829Z,0
2016-11-25T03:18:59.897Z,0
2016-11-25T03:20:13.102Z,0
2016-11-25T03:21:29.416Z,0
2016-11-25T03:22:42.888Z,0
2016-11-25T03:23:56.856Z,0
2016-11-25T03:25:13.003Z,0
2016-11-25T03:26:27.531Z,0
2016-11-25T03:27:42.736Z,0
2016-11-25T03:28:57.192Z,0
2016-11-25T03:30:09.963Z,0
2016-11-25T03:31:24.796Z,0
2016-11-25T03:32:39.756Z,0
2016-11-25T03:33:54.849Z,0
2016-11-25T03:35:11.298Z,0
2016-11-25T03:36:24.327Z,0
2016-11-25T03:37:40.843Z,0
2016-11-25T03:38:55.503Z,0
2016-11-25T03:40:10.743Z,0
2016-11-25T03:41:27.027Z,0
2016-11-25T03:42:43.118Z,0
2016-11-25T03:43:57.539Z,0
2016-11-25T03:45:14.440Z,0
2016-11-25T03:46:29.289Z,0
2016-11-25T03:47:46.037Z,0
2016-11-25T03:49:02.771Z,0
2016-11-25T03:50:17.461Z,0
2016-11-25T03:51:30.387Z,0
2016-11-25T03:52:43.544Z,0
2016-11-25T03:53:59.851Z,0
2016-11-25T03:55:16.842Z,0
2016-11-25T03:56:33.212Z,0
2016-11-25T03:57:46.684Z,0
2016-11-25T03:58:59.660Z,0
2016-11-25T04:00:13.682Z,0
2016-11-25T04:01:27.067Z,0
2016-11-25T04:02:43.146Z,0
2016-11-25T04:03:58.269Z,0
2016-11-25T04:05:12.385Z,0
2016-11-25T04:06:26.940Z,0
2016-11-25T04:07:39.914Z,0
2016-11-25T04:08:55.186Z,0
2016-11-25T04:10:11.364Z,0
2016-11-25T04:11:27.887Z,0
2016-11-25T04:12:42.562Z,0
2016-11-25T04:13:56.987Z,0
2016-11-25T04:15:13.028Z,0
2016-11-25T04:16:28.972Z,0
2016-11-25T04:17:45.357Z,0
2016-11-25T04:19:00.536Z,0
2016-11-25T04:20:13.502Z,0
2016-11-25T04:21:28.526Z,0
2016-11-25T04:22:44.484Z,0
2016-11-25T04:24:00.224Z,0
2016-11-25T04:25:16.253Z,0
2016-11-25T04:26:30.311Z,0
2016-11-25T04:27:46.448Z,0
2016-11-25T04:29:02.000Z,0
2016-11-25T04:30:16.358Z,0
2016-11-25T04:31:31.367Z,0
2016-11-25T04:32:47.777Z,0
2016-11-25T04:34:03.957Z,0
2016-11-25T04:35:15.964Z,0
2016-11-25T04:36:29.203Z,0
2016-11-25T04:37:42.269Z,0
2016-11-25T04:38:54.038Z,0
2016-11-25T04:40:08.958Z,0
2016-11-25T04:41:22.977Z,0
2016-11-25T04:42:37.779Z,0
2016-11-25T04:43:52.722Z,0
2016-11-25T04:45:08.717Z,0
2016-11-25T04:46:23.530Z,0
2016-11-25T04:47:39.299Z,0
2016-11-25T04:48:55.553Z,0
2016-11-25T04:50:10.267Z,0
2016-11-25T04:51:25.132Z,0
2016-11-25T04:52:39.890Z,0
2016-11-25T04:53:55.766Z,0
2016-11-25T04:55:09.058Z,0
2016-11-25T04:56:24.102Z,0
2016-11-25T04:57:39.001Z,0
2016-11-25T04:58:53.700Z,0
2016-11-25T05:00:10.049Z,0
2016-11-25T05:01:26.614Z,0
2016-11-25T05:02:41.793Z,0
2016-11-25T05:03:57.552Z,0
2016-11-25T05:05:13.655Z,0
2016-11-25T05:06:30.071Z,0
2016-11-25T05:07:45.542Z,0
2016-11-25T05:08:57.641Z,0
2016-11-25T05:10:13.314Z,0
2016-11-25T05:11:28.589Z,0
2016-11-25T05:12:43.450Z,0
2016-11-25T05:13:58.763Z,0
2016-11-25T05:15:14.706Z,0
2016-11-25T05:16:29.135Z,0
2016-11-25T05:17:45.295Z,0
2016-11-25T05:19:01.886Z,0
2016-11-25T05:20:16.372Z,0
2016-11-25T05:21:31.632Z,0
2016-11-25T05:22:45.427Z,0
2016-11-25T05:24:00.033Z,0
2016-11-25T05:25:16.850Z,0
2016-11-25T05:26:30.251Z,0
2016-11-25T05:27:43.297Z,0
2016-11-25T05:28:59.835Z,0
2016-11-25T05:30:15.890Z,0
2016-11-25T05:31:30.983Z,0
2016-11-25T05:32:45.402Z,0
2016-11-25T05:34:00.888Z,0
2016-11-25T05:35:14.920Z,0
2016-11-25T05:36:31.485Z,0
2016-11-25T05:37:44.888Z,0
2016-11-25T05:39:00.607Z,0
2016-11-25T05:40:15.701Z,0
2016-11-25T05:41:30.725Z,0
2016-11-25T05:42:46.860Z,0
2016-11-25T05:44:03.456Z,0
2016-11-25T05:45:19.623Z,0
2016-11-25T05:46:34.626Z,0
2016-11-25T05:47:49.542Z,0
2016-11-25T05:49:05.432Z,0
2016-11-25T05:50:19.868Z,0
2016-11-25T05:51:35.419Z,0
2016-11-25T05:52:50.117Z,0
2016-11-25T05:54:06.828Z,0
2016-11-25T05:55:21.647Z,0
2016-11-25T05:56:36.876Z,0
2016-11-25T05:57:53.067Z,0
2016-11-25T05:59:09.371Z,0
2016-11-25T06:00:21.334Z,0
2016-11-25T06:01:38.063Z,0
2016-11-25T06:02:52.931Z,0
2016-11-25T06:04:08.837Z,0
2016-11-25T06:05:22.863Z,0
2016-11-25T06:06:38.531Z,0
2016-11-25T06:07:54.947Z,0
2016-11-25T06:09:09.915Z,0
2016-11-25T06:10:26.018Z,0
2016-11-25T06:11:37.705Z,0
2016-11-25T06:12:53.752Z,0
2016-11-25T06:14:09.816Z,0
2016-11-25T06:15:24.738Z,0
2016-11-25T06:16:39.014Z,0
2016-11-25T06:17:54.052Z,0
2016-11-25T06:19:10.540Z,0
2016-11-25T06:20:24.553Z,0
2016-11-25T06:21:34.916Z,0
2016-11-25T06:22:52.459Z,0
2016-11-25T06:24:06.784Z,0
2016-11-25T06:25:21.034Z,0
2016-11-25T06:26:35.460Z,0
2016-11-25T06:27:48.679Z,0
2016-11-25T06:29:02.608Z,0
2016-11-25T06:30:15.997Z,0
2016-11-25T06:31:32.325Z,0
2016-11-25T06:32:46.343Z,0
2016-11-25T06:34:00.760Z,0
2016-11-25T06:35:14.261Z,0
2016-11-25T06:36:28.868Z,0
2016-11-25T06:37:45.224Z,0
2016-11-25T06:38:59.651Z,0
2016-11-25T06:40:14.868Z,0
2016-11-25T06:41:31.440Z,0
2016-11-25T06:42:45.098Z,0
2016-11-25T06:44:00.190Z,0
2016-11-25T06:45:15.034Z,0
2016-11-25T06:46:29.926Z,0
2016-11-25T06:47:44.176Z,0
2016-11-25T06:48:58.221Z,0
2016-11-25T06:50:13.601Z,5
2016-11-25T06:51:26.835Z,5
2016-11-25T06:52:43.939Z,5
2016-11-25T06:54:00.396Z,5
2016-11-25T06:55:15.476Z,5
2016-11-25T06:56:30.637Z,10
2016-11-25T06:57:43.968Z,10
2016-11-25T06:59:00.253Z,10
2016-11-25T07:00:16.006Z,10
2016-11-25T07:01:30.859Z,15
2016-11-25T07:02:44.432Z,15
2016-11-25T07:03:59.447Z,15
2016-11-25T07:05:15.352Z,15
2016-11-25T07:06:31.721Z,20
2016-11-25T07:07:46.398Z,20
2016-11-25T07:09:02.858Z,25
2016-11-25T07:10:18.113Z,25
2016-11-25T07:11:34.602Z,30
2016-11-25T07:12:47.727Z,35
2016-11-25T07:14:01.351Z,35
2016-11-25T07:15:18.133Z,40
2016-11-25T07:16:31.599Z,40
2016-11-25T07:17:44.418Z,40
2016-11-25T07:18:59.032Z,45
2016-11-25T07:20:13.001Z,45
2016-11-25T07:21:29.466Z,50
2016-11-25T07:22:43.954Z,55
2016-11-25T07:24:00.695Z,60
2016-11-25T07:25:15.934Z,60
2016-11-25T07:26:32.211Z,65
2016-11-25T07:27:48.201Z,70
2016-11-25T07:29:01.019Z,70
2016-11-25T07:30:13.828Z,75
2016-11-25T07:31:30.617Z,80
2016-11-25T07:32:45.470Z,80
2016-11-25T07:34:01.675Z,85
2016-11-25T07:35:14.076Z,90
2016-11-25T07:36:26.865Z,90
2016-11-25T07:37:41.917Z,95
2016-11-25T07:38:56.900Z,105
2016-11-25T07:40:11.755Z,120
2016-11-25T07:41:26.685Z,150
2016-11-25T07:42:42.568Z,185
2016-11-25T07:43:56.812Z,200
2016-11-25T07:45:12.884Z,210
2016-11-25T07:46:27.634Z,215
2016-11-25T07:47:41.126Z,220
2016-11-25T07:48:57.529Z,220
2016-11-25T07:50:09.214Z,215
2016-11-25T07:51:24.436Z,225
2016-11-25T07:52:37.652Z,235
2016-11-25T07:53:52.292Z,240
2016-11-25T07:55:07.492Z,245
2016-11-25T07:56:23.813Z,255
2016-11-25T07:57:37.610Z,265
2016-11-25T07:58:51.536Z,260
2016-11-25T08:00:06.146Z,290
2016-11-25T08:01:19.629Z,305
2016-11-25T08:02:34.917Z,320
2016-11-25T08:03:48.225Z,330
2016-11-25T08:05:01.720Z,345
2016-11-25T08:06:16.344Z,360
2016-11-25T08:07:32.263Z,375
2016-11-25T08:08:46.987Z,375
2016-11-25T08:10:00.944Z,370
2016-11-25T08:11:16.586Z,400
2016-11-25T08:12:30.809Z,440
2016-11-25T08:13:45.663Z,450
2016-11-25T08:15:01.823Z,470
2016-11-25T08:16:16.443Z,480
2016-11-25T08:17:31.929Z,495
2016-11-25T08:18:45.150Z,510
2016-11-25T08:19:59.856Z,515
2016-11-25T08:21:13.737Z,520
2016-11-25T08:22:27.573Z,510
2016-11-25T08:23:42.845Z,525
2016-11-25T08:24:58.763Z,525
2016-11-25T08:26:12.784Z,530
2016-11-25T08:27:27.585Z,530
2016-11-25T08:28:42.238Z,540
2016-11-25T08:29:57.753Z,555
2016-11-25T08:31:12.872Z,550
2016-11-25T08:32:24.881Z,550
2016-11-25T08:33:38.025Z,545
2016-11-25T08:34:53.420Z,570
2016-11-25T08:36:09.524Z,600
2016-11-25T08:37:23.973Z,635
2016-11-25T08:38:38.041Z,700
2016-11-25T08:39:51.212Z,745
2016-11-25T08:41:06.145Z,770
2016-11-25T08:42:21.244Z,780
2016-11-25T08:43:34.751Z,795
2016-11-25T08:44:47.011Z,780
2016-11-25T08:46:03.167Z,730
2016-11-25T08:47:18.995Z,790
2016-11-25T08:48:34.802Z,820
2016-11-25T08:49:48.411Z,840
2016-11-25T08:51:04.304Z,1000
2016-11-25T08:52:20.364Z,1070
2016-11-25T08:53:35.203Z,1125
2016-11-25T08:54:51.623Z,1160
2016-11-25T08:56:10.620Z,1140
2016-11-25T08:57:23.896Z,1225
2016-11-25T08:58:40.104Z,1075
2016-11-25T08:59:56.433Z,1245
2016-11-25T09:01:10.986Z,1155
2016-11-25T09:02:27.064Z,1105
2016-11-25T09:03:42.823Z,1110
2016-11-25T09:04:58.084Z,1050
2016-11-25T09:06:12.855Z,1045
2016-11-25T09:07:25.120Z,1100
2016-11-25T09:08:38.696Z,1195
2016-11-25T09:09:54.462Z,1210
2016-11-25T09:11:10.256Z,1185
2016-11-25T09:12:26.445Z,1220
2016-11-25T09:13:42.127Z,1165
2016-11-25T09:14:56.755Z,1100
2016-11-25T09:16:11.644Z,1205
2016-11-25T09:17:25.199Z,1275
2016-11-25T09:18:39.892Z,1350
2016-11-25T09:19:56.061Z,1345
2016-11-25T09:21:12.049Z,1380
2016-11-25T09:22:27.349Z,1420
2016-11-25T09:23:44.188Z,1425
2016-11-25T09:25:00.511Z,1425
2016-11-25T09:26:17.058Z,1470
2016-11-25T09:27:33.859Z,1485
2016-11-25T09:28:49.803Z,1455
2016-11-25T09:30:05.315Z,1445
2016-11-25T09:31:21.060Z,1470
2016-11-25T09:32:36.404Z,1515
2016-11-25T09:33:52.876Z,1505
2016-11-25T09:35:07.972Z,1540
2016-11-25T09:36:24.724Z,1565
2016-11-25T09:37:37.891Z,1600
2016-11-25T09:38:52.693Z,1595
2016-11-25T09:40:08.806Z,1560
2016-11-25T09:41:25.380Z,1630
2016-11-25T09:42:37.319Z,1620
2016-11-25T09:43:50.653Z,1605
2016-11-25T09:45:06.404Z,1610
2016-11-25T09:46:19.156Z,1540
2016-11-25T09:47:35.341Z,1550
2016-11-25T09:48:51.412Z,1545
2016-11-25T09:50:06.284Z,1640
2016-11-25T09:51:20.556Z,1615
2016-11-25T09:52:36.860Z,1430
2016-11-25T09:53:52.309Z,1550
2016-11-25T09:55:09.386Z,1635
2016-11-25T09:56:24.977Z,1645
2016-11-25T09:57:40.111Z,1635
2016-11-25T09:58:55.375Z,1640
2016-11-25T10:00:11.347Z,1510
2016-11-25T10:01:26.036Z,1295
2016-11-25T10:02:41.939Z,1150
2016-11-25T10:03:57.221Z,1290
2016-11-25T10:05:10.621Z,1255
2016-11-25T10:06:25.926Z,1290
2016-11-25T10:07:39.078Z,1315
2016-11-25T10:08:55.008Z,1275
2016-11-25T10:10:10.539Z,1290
2016-11-25T10:11:27.119Z,1255
2016-11-25T10:12:41.047Z,1255
2016-11-25T10:13:55.790Z,1240
2016-11-25T10:15:11.462Z,1305
2016-11-25T10:16:27.440Z,1360
2016-11-25T10:17:43.539Z,1375
2016-11-25T10:18:58.278Z,1270
2016-11-25T10:20:09.989Z,1280
2016-11-25T10:21:25.274Z,1125
2016-11-25T10:22:39.602Z,1310
2016-11-25T10:23:55.975Z,1365
2016-11-25T10:25:09.124Z,1335
2016-11-25T10:26:25.821Z,1480
2016-11-25T10:27:39.487Z,1335
2016-11-25T10:28:53.572Z,1250
2016-11-25T10:30:08.427Z,1205
2016-11-25T10:31:23.246Z,1215
2016-11-25T10:32:38.091Z,1175
2016-11-25T10:33:52.891Z,1175
2016-11-25T10:35:08.817Z,735
2016-11-25T10:36:21.661Z,325
2016-11-25T10:37:36.916Z,300
2016-11-25T10:38:51.131Z,275
2016-11-25T10:40:05.504Z,250
2016-11-25T10:41:21.002Z,250
2016-11-25T10:42:37.200Z,290
2016-11-25T10:43:53.288Z,285
2016-11-25T10:45:07.807Z,675
2016-11-25T10:46:21.060Z,705
2016-11-25T10:47:36.880Z,280
2016-11-25T10:48:53.223Z,260
2016-11-25T10:50:09.391Z,235
2016-11-25T10:51:26.252Z,230
2016-11-25T10:52:41.013Z,225
2016-11-25T10:53:56.255Z,225
2016-11-25T10:55:11.768Z,225
2016-11-25T10:56:28.223Z,225
2016-11-25T10:57:43.415Z,220
2016-11-25T10:58:59.987Z,220
2016-11-25T11:00:16.458Z,225
2016-11-25T11:01:32.508Z,220
2016-11-25T11:02:47.370Z,220
2016-11-25T11:04:03.174Z,215
2016-11-25T11:05:18.260Z,215
2016-11-25T11:06:32.563Z,215
2016-11-25T11:07:49.302Z,215
2016-11-25T11:09:04.238Z,215
2016-11-25T11:10:20.165Z,215
2016-11-25T11:11:37.306Z,215
2016-11-25T11:12:52.581Z,210
2016-11-25T11:14:09.606Z,215
2016-11-25T11:15:23.277Z,210
2016-11-25T11:16:39.582Z,210
2016-11-25T11:17:54.233Z,210
2016-11-25T11:19:10.573Z,210
2016-11-25T11:20:26.301Z,205
2016-11-25T11:21:40.757Z,205
2016-11-25T11:22:57.091Z,205
2016-11-25T11:24:13.153Z,205
2016-11-25T11:25:26.812Z,210
2016-11-25T11:26:41.432Z,210
2016-11-25T11:27:55.727Z,210
2016-11-25T11:29:08.786Z,210
2016-11-25T11:30:24.838Z,205
2016-11-25T11:31:41.372Z,205
2016-11-25T11:32:56.479Z,205
2016-11-25T11:34:11.425Z,205
2016-11-25T11:35:24.237Z,205
2016-11-25T11:36:37.726Z,205
2016-11-25T11:37:55.012Z,205
2016-11-25T11:39:11.576Z,200
2016-11-25T11:40:26.200Z,200
2016-11-25T11:41:42.090Z,200
2016-11-25T11:42:57.070Z,200
2016-11-25T11:44:10.387Z,200
2016-11-25T11:45:25.477Z,200
2016-11-25T11:46:42.025Z,200
2016-11-25T11:47:57.917Z,195
2016-11-25T11:49:10.744Z,195
2016-11-25T11:50:25.509Z,195
2016-11-25T11:51:40.452Z,195
2016-11-25T11:52:53.764Z,195
2016-11-25T11:54:08.769Z,190
2016-11-25T11:55:23.411Z,190
2016-11-25T11:56:39.579Z,190
2016-11-25T11:57:55.091Z,190
2016-11-25T11:59:09.809Z,190
2016-11-25T12:00:25.199Z,190
2016-11-25T12:01:39.985Z,185
2016-11-25T12:02:56.467Z,185
2016-11-25T12:04:12.177Z,185
2016-11-25T12:05:28.755Z,185
2016-11-25T12:06:45.509Z,185
2016-11-25T12:08:00.865Z,185
2016-11-25T12:09:16.063Z,185
2016-11-25T12:10:31.156Z,185
2016-11-25T12:11:45.895Z,185
2016-11-25T12:13:02.687Z,185
2016-11-25T12:14:17.535Z,185
2016-11-25T12:15:34.460Z,180
2016-11-25T12:16:48.220Z,180
2016-11-25T12:18:03.861Z,180
2016-11-25T12:19:18.987Z,180
2016-11-25T12:20:31.809Z,180
2016-11-25T12:21:46.677Z,180
2016-11-25T12:23:01.717Z,180
2016-11-25T12:24:16.045Z,180
2016-11-25T12:25:32.624Z,180
2016-11-25T12:26:48.666Z,180
2016-11-25T12:28:04.176Z,180
2016-11-25T12:29:17.615Z,180
2016-11-25T12:30:30.850Z,180
2016-11-25T12:31:47.191Z,180
2016-11-25T12:33:04.320Z,180
2016-11-25T12:34:20.612Z,180
2016-11-25T12:35:33.907Z,180
2016-11-25T12:36:47.277Z,180
2016-11-25T12:37:59.966Z,180
2016-11-25T12:39:16.673Z,180
2016-11-25T12:40:32.827Z,180
2016-11-25T12:41:49.255Z,180
2016-11-25T12:43:05.416Z,180
2016-11-25T12:44:22.325Z,180
2016-11-25T12:45:38.257Z,180
2016-11-25T12:46:53.236Z,180
2016-11-25T12:48:10.015Z,180
2016-11-25T12:49:25.346Z,180
2016-11-25T12:50:40.864Z,180
2016-11-25T12:51:54.514Z,180
2016-11-25T12:53:08.992Z,180
2016-11-25T12:54:19.633Z,180
2016-11-25T12:55:35.379Z,180
2016-11-25T12:56:52.663Z,175
2016-11-25T12:58:09.841Z,180
2016-11-25T12:59:23.880Z,175
2016-11-25T13:00:38.764Z,175
2016-11-25T13:01:53.649Z,175
2016-11-25T13:03:09.645Z,175
2016-11-25T13:04:26.649Z,175
2016-11-25T13:05:41.359Z,175
2016-11-25T13:06:56.457Z,175
2016-11-25T13:08:12.541Z,175
2016-11-25T13:09:25.791Z,175
2016-11-25T13:10:40.191Z,175
2016-11-25T13:11:55.039Z,175
2016-11-25T13:13:08.293Z,175
2016-11-25T13:14:23.650Z,175
2016-11-25T13:15:37.228Z,175
2016-11-25T13:16:51.927Z,175
2016-11-25T13:18:08.534Z,175
2016-11-25T13:19:25.603Z,170
2016-11-25T13:20:39.158Z,170
2016-11-25T13:21:53.991Z,170
2016-11-25T13:23:10.090Z,165
2016-11-25T13:24:24.899Z,165
2016-11-25T13:25:41.394Z,165
2016-11-25T13:26:56.404Z,165
2016-11-25T13:28:12.790Z,160
2016-11-25T13:29:24.721Z,155
2016-11-25T13:30:38.661Z,155
2016-11-25T13:31:55.973Z,155
2016-11-25T13:33:09.345Z,150
2016-11-25T13:34:25.284Z,150
2016-11-25T13:35:37.545Z,150
2016-11-25T13:36:53.882Z,145
2016-11-25T13:38:07.703Z,145
2016-11-25T13:39:23.623Z,145
2016-11-25T13:40:38.241Z,145
2016-11-25T13:41:52.921Z,140
2016-11-25T13:43:07.863Z,140
2016-11-25T13:44:21.018Z,140
2016-11-25T13:45:37.567Z,140
2016-11-25T13:46:52.411Z,135
2016-11-25T13:48:07.356Z,135
2016-11-25T13:49:22.843Z,135
2016-11-25T13:50:39.454Z,135
2016-11-25T13:51:54.996Z,130
2016-11-25T13:53:11.020Z,130
2016-11-25T13:54:25.590Z,130
2016-11-25T13:55:38.929Z,125
2016-11-25T13:56:50.937Z,125
2016-11-25T13:58:04.359Z,125
2016-11-25T13:59:20.567Z,125
2016-11-25T14:00:33.643Z,120
2016-11-25T14:01:47.908Z,120
2016-11-25T14:03:01.308Z,120
2016-11-25T14:04:17.422Z,115
2016-11-25T14:05:32.289Z,120
2016-11-25T14:06:46.828Z,120
2016-11-25T14:08:00.741Z,115
2016-11-25T14:09:17.505Z,110
2016-11-25T14:10:32.384Z,110
2016-11-25T14:11:45.399Z,110
2016-11-25T14:13:01.736Z,105
2016-11-25T14:14:13.486Z,105
2016-11-25T14:15:26.623Z,105
2016-11-25T14:16:40.974Z,105
2016-11-25T14:17:55.859Z,100
2016-11-25T14:19:10.568Z,100
2016-11-25T14:20:24.369Z,100
2016-11-25T14:21:40.404Z,100
2016-11-25T14:22:53.785Z,100
2016-11-25T14:24:08.878Z,95
2016-11-25T14:25:23.660Z,100
2016-11-25T14:26:36.008Z,95
2016-11-25T14:27:51.310Z,95
2016-11-25T14:29:06.233Z,95
2016-11-25T14:30:22.538Z,95
2016-11-25T14:31:37.553Z,90
2016-11-25T14:32:54.401Z,90
2016-11-25T14:34:09.589Z,90
2016-11-25T14:35:25.564Z,85
2016-11-25T14:36:42.384Z,85
2016-11-25T14:37:59.133Z,85
2016-11-25T14:39:13.096Z,80
2016-11-25T14:40:27.683Z,80
2016-11-25T14:41:44.590Z,75
2016-11-25T14:42:59.427Z,75
2016-11-25T14:44:13.443Z,75
2016-11-25T14:45:29.341Z,70
2016-11-25T14:46:45.611Z,70
2016-11-25T14:48:01.675Z,70
2016-11-25T14:49:17.223Z,65
2016-11-25T14:50:32.163Z,65
2016-11-25T14:51:45.819Z,60
2016-11-25T14:53:01.057Z,60
2016-11-25T14:54:17.954Z,60
2016-11-25T14:55:31.978Z,60
2016-11-25T14:56:48.708Z,55
2016-11-25T14:58:05.439Z,55
2016-11-25T14:59:21.334Z,50
2016-11-25T15:00:35.303Z,50
2016-11-25T15:01:50.406Z,50
2016-11-25T15:03:06.487Z,45
2016-11-25T15:04:21.923Z,45
2016-11-25T15:05:36.281Z,45
2016-11-25T15:06:51.962Z,40
2016-11-25T15:08:08.251Z,40
2016-11-25T15:09:21.664Z,35
2016-11-25T15:10:38.147Z,35
2016-11-25T15:11:54.436Z,30
2016-11-25T15:13:09.437Z,30
2016-11-25T15:14:25.236Z,30
2016-11-25T15:15:40.975Z,25
2016-11-25T15:16:56.154Z,25
2016-11-25T15:18:11.565Z,20
2016-11-25T15:19:26.257Z,20
2016-11-25T15:20:39.608Z,20
2016-11-25T15:21:55.990Z,15
2016-11-25T15:23:11.031Z,15
2016-11-25T15:24:26.134Z,15
2016-11-25T15:25:40.787Z,10
2016-11-25T15:26:52.697Z,10
2016-11-25T15:28:09.161Z,10
2016-11-25T15:29:26.313Z,10
2016-11-25T15:30:38.492Z,10
2016-11-25T15:31:53.607Z,5
2016-11-25T15:33:09.956Z,5
2016-11-25T15:34:23.903Z,5
2016-11-25T15:35:38.666Z,5
2016-11-25T15:36:55.033Z,5
2016-11-25T15:38:11.814Z,5
2016-11-25T15:39:26.999Z,5
2016-11-25T15:40:41.884Z,0
2016-11-25T15:41:58.187Z,0
2016-11-25T15:43:12.918Z,0
2016-11-25T15:44:28.139Z,0
2016-11-25T15:45:40.009Z,0
2016-11-25T15:46:54.944Z,0
2016-11-25T15:48:11.261Z,0
2016-11-25T15:49:23.054Z,0
2016-11-25T15:50:37.075Z,0
2016-11-25T15:51:48.855Z,0
2016-11-25T15:53:03.933Z,0
2016-11-25T15:54:18.689Z,0
2016-11-25T15:55:33.086Z,0
2016-11-25T15:56:49.296Z,0
2016-11-25T15:58:03.759Z,0
2016-11-25T15:59:18.323Z,0
2016-11-25T16:00:31.407Z,0
2016-11-25T16:01:46.423Z,0
2016-11-25T16:03:01.105Z,0
2016-11-25T16:04:16.994Z,0
2016-11-25T16:05:31.055Z,0
2016-11-25T16:06:45.326Z,0
2016-11-25T16:08:01.935Z,0
2016-11-25T16:09:14.956Z,0
2016-11-25T16:10:30.043Z,0
2016-11-25T16:11:46.646Z,0
2016-11-25T16:13:00.131Z,0
2016-11-25T16:14:15.474Z,0
2016-11-25T16:15:31.716Z,0
2016-11-25T16:16:48.478Z,0
2016-11-25T16:18:01.742Z,0
2016-11-25T16:19:16.266Z,0
2016-11-25T16:20:29.647Z,0
2016-11-25T16:21:44.189Z,0
2016-11-25T16:22:59.025Z,0
2016-11-25T16:24:14.354Z,0
2016-11-25T16:25:31.635Z,0
2016-11-25T16:26:48.097Z,0
2016-11-25T16:28:02.390Z,0
2016-11-25T16:29:18.229Z,0
2016-11-25T16:30:35.032Z,0
2016-11-25T16:31:49.363Z,0
2016-11-25T16:33:06.309Z,0
2016-11-25T16:34:20.509Z,0
2016-11-25T16:35:37.234Z,0
2016-11-25T16:36:51.159Z,0
2016-11-25T16:38:07.875Z,0
2016-11-25T16:39:25.043Z,0
2016-11-25T16:40:39.737Z,0
2016-11-25T16:41:55.884Z,0
2016-11-25T16:43:11.081Z,0
2016-11-25T16:44:25.709Z,0
2016-11-25T16:45:42.005Z,0
2016-11-25T16:46:55.598Z,0
2016-11-25T16:48:10.687Z,0
2016-11-25T16:49:26.917Z,0
2016-11-25T16:50:40.391Z,0
2016-11-25T16:51:55.763Z,0
2016-11-25T16:53:12.661Z,0
2016-11-25T16:54:29.341Z,0
2016-11-25T16:55:44.280Z,0
2016-11-25T16:57:01.099Z,0
2016-11-25T16:58:15.572Z,0
2016-11-25T16:59:32.042Z,0
2016-11-25T17:00:45.122Z,0
2016-11-25T17:02:01.231Z,0
2016-11-25T17:03:15.262Z,0
2016-11-25T17:04:31.836Z,0
2016-11-25T17:05:44.676Z,0
2016-11-25T17:06:59.493Z,0
2016-11-25T17:08:14.542Z,0
2016-11-25T17:09:29.217Z,0
2016-11-25T17:10:44.536Z,0
2016-11-25T17:12:00.279Z,0
2016-11-25T17:13:16.704Z,0
2016-11-25T17:14:33.460Z,0
2016-11-25T17:15:49.674Z,0
2016-11-25T17:17:02.047Z,0
2016-11-25T17:18:17.971Z,0
2016-11-25T17:19:32.830Z,0
2016-11-25T17:20:48.468Z,0
2016-11-25T17:22:03.620Z,0
2016-11-25T17:23:18.807Z,0
2016-11-25T17:24:34.023Z,0
2016-11-25T17:25:47.351Z,0
2016-11-25T17:27:02.202Z,0
2016-11-25T17:28:18.777Z,0
2016-11-25T17:29:34.955Z,0
2016-11-25T17:30:50.245Z,0
2016-11-25T17:32:05.856Z,0
2016-11-25T17:33:21.010Z,0
2016-11-25T17:34:35.558Z,0
2016-11-25T17:35:52.540Z,0
2016-11-25T17:37:08.799Z,0
2016-11-25T17:38:25.522Z,0
2016-11-25T17:39:41.268Z,0
2016-11-25T17:40:54.055Z,0
2016-11-25T17:42:09.997Z,0
2016-11-25T17:43:24.657Z,0
2016-11-25T17:44:39.394Z,0
2016-11-25T17:45:54.864Z,0
2016-11-25T17:47:11.586Z,0
2016-11-25T17:48:28.480Z,0
2016-11-25T17:49:42.749Z,0
2016-11-25T17:50:57.452Z,0